KSDY/SDY METAR and TAF weather

Enter ICAO airport designator
Station Type Date Time Source
KSDY METAR 2024/07/23 16:56 UTC NOAA

KSDY 231656Z AUTO 09009KT 8SM CLR 30/17 A3000 RMK AO2 SLP149 T03000172


Station Type Date Time Source
KSDY Decoded METAR 2024/07/23 16:56 UTC NOAA

Sidney-Richland, MT, United States (KSDY) 47-42N 104-12W
Jul 23, 2024 - 12:56 PM EDT / 2024.07.23 1656 UTC
Wind: from the E (090 degrees) at 10 MPH (9 KT):0
Visibility: 8 mile(s):0
Sky conditions: clear
Temperature: 86.0 F (30.0 C)
Dew Point: 63.0 F (17.2 C)
Relative Humidity: 46%
Pressure (altimeter): 30 in. Hg (1015 hPa)
ob: KSDY 231656Z AUTO 09009KT 8SM CLR 30/17 A3000 RMK AO2 SLP149 T03000172
cycle: 17

Station Type Date Time Source
KSDY TAF 2024/07/23 12:27 UTC NOAA